Huvudsida
METAR-TAF:

METAR-TAF

Flygplatser :

Røros flygplats

Röros, Norge

latitud: 62-35N, longitud: 011-21E, höjd: 626 m

Aktuellt väderrapport

Denna rapport gjordes för 15 minuter sedan, klockan 03:50 UTC
Vind 2 kt varierande vindriktning
Temperatur -3°C
Fuktighet 100%
Tryck 990 hPa
Sikt 10 km eller mer
lätta snöbyar

METAR: ENRO 190350Z AUTO VRB02KT 9999NDV -SHSN FEW007/// BKN034/// OVC041/// M03/M03 Q0990

Tid: 05:05 (04:05 UTC)

Väderprognos

Denna rapport gjordes för 2 timmar och 5 minuter sedan, klockan 02:00 UTC
Prognos gäller från 19 kl. 03 UTC till 19 kl. 12 UTC
Vind 8 kt från väst
Sikt 10 km eller mer
Spridda moln på en höjd av 1000 ft
Brutna moln på en höjd av 3000 ft
Temporärt
från 19 kl. 03 UTC till 19 kl. 12 UTC
Sikt: 2500 m
på en höjd av 900 ft
lätta snöbyar

TAF: ENRO 190200Z 1903/1912 26008KT 9999 SCT010 BKN030 TEMPO 1903/1912 2500 -SHSN VV009

Aktuella väderrapporter och prognoser från 4000 flygplatser (METAR- och TAF-rapporter).

De tillgängliga stationerna syns som gula och röda prickar på kartan.

För musen över prickarna för att se namnen på stationerna.

Klicka sedan för att få väderrapporter och prognoser.

För att ändra kartan: Klicka på de gröna knapparna med ett svart kors på för att zooma in; den gröna knappen med ett streck på för att zooma ut; eller på de gröna pilarna för angränsande kartor.


METAR-TAF: